createdAt,value
2022-08-22T00:00:19.285Z,19.41
2022-08-22T00:01:19.204Z,19.39
2022-08-22T00:02:19.148Z,19.44
2022-08-22T00:02:53.826Z,20.66
2022-08-22T00:02:54.720Z,20.00
2022-08-22T00:02:59.714Z,23.77
2022-08-22T00:03:08.057Z,22.60
2022-08-22T00:03:16.135Z,19.76
2022-08-22T00:04:18.976Z,19.56
2022-08-22T00:05:18.926Z,19.52
2022-08-22T00:06:18.833Z,19.51
2022-08-22T00:07:18.752Z,19.54
2022-08-22T00:08:18.679Z,19.52
2022-08-22T00:09:18.606Z,19.56
2022-08-22T00:10:25.242Z,19.51
2022-08-22T00:11:18.458Z,19.59
2022-08-22T00:12:18.383Z,19.48
2022-08-22T00:13:18.303Z,19.58
2022-08-22T00:14:18.229Z,19.62
2022-08-22T00:15:41.936Z,19.55
2022-08-22T00:16:18.079Z,19.64
2022-08-22T00:17:18.006Z,19.64
2022-08-22T00:18:17.934Z,19.58
2022-08-22T00:19:17.852Z,19.59
2022-08-22T00:20:17.777Z,19.70
2022-08-22T00:21:17.711Z,19.58
2022-08-22T00:22:17.627Z,19.64
2022-08-22T00:23:17.552Z,19.69
2022-08-22T00:24:17.475Z,19.66
2022-08-22T00:25:24.689Z,19.63
2022-08-22T00:26:17.328Z,19.70
2022-08-22T00:27:17.256Z,19.74
2022-08-22T00:28:17.177Z,19.69
2022-08-22T00:29:17.099Z,19.67
2022-08-22T00:30:17.021Z,19.63
2022-08-22T00:31:16.953Z,19.74
2022-08-22T00:32:16.878Z,19.67
2022-08-22T00:33:16.802Z,19.70
2022-08-22T00:34:16.722Z,19.67
2022-08-22T00:35:16.650Z,19.70
2022-08-22T00:36:16.578Z,19.71
2022-08-22T00:37:16.508Z,19.64
2022-08-22T00:38:16.425Z,19.64
2022-08-22T00:39:16.348Z,19.56
2022-08-22T00:40:16.326Z,19.64
2022-08-22T00:41:16.206Z,19.59
2022-08-22T00:42:16.126Z,19.56
2022-08-22T00:43:16.051Z,19.59
2022-08-22T00:44:15.973Z,19.49
2022-08-22T00:45:15.898Z,19.58
2022-08-22T00:46:15.822Z,19.51
2022-08-22T00:47:15.753Z,19.54
2022-08-22T00:48:15.670Z,19.55
2022-08-22T00:49:15.595Z,19.45
2022-08-22T00:50:15.522Z,19.55
2022-08-22T00:51:15.451Z,19.47
2022-08-22T00:52:15.376Z,19.47
2022-08-22T00:53:15.300Z,19.41
2022-08-22T00:54:17.623Z,19.37
2022-08-22T00:55:15.148Z,19.41
2022-08-22T00:56:15.078Z,19.30
2022-08-22T00:57:15.000Z,19.31
2022-08-22T00:58:14.922Z,19.26
2022-08-22T00:59:23.047Z,19.30
2022-08-22T01:00:14.775Z,19.22
2022-08-22T01:01:14.729Z,19.16
2022-08-22T01:02:14.623Z,19.08
2022-08-22T01:03:14.547Z,19.02
2022-08-22T01:04:14.469Z,19.00
2022-08-22T01:05:14.396Z,19.04
2022-08-22T01:06:14.318Z,18.99
2022-08-22T01:07:14.247Z,18.89
2022-08-22T01:08:14.165Z,18.89
2022-08-22T01:09:14.091Z,18.81
2022-08-22T01:10:14.021Z,18.75
2022-08-22T01:11:13.943Z,18.80
2022-08-22T01:12:13.871Z,18.81
2022-08-22T01:13:13.792Z,18.73
2022-08-22T01:14:13.718Z,18.74
2022-08-22T01:15:13.646Z,18.74
2022-08-22T01:16:13.571Z,18.68
2022-08-22T01:17:13.493Z,18.58
2022-08-22T01:18:13.419Z,18.60
2022-08-22T01:19:13.341Z,18.56
2022-08-22T01:20:13.267Z,18.52
2022-08-22T01:21:13.186Z,18.52
2022-08-22T01:22:13.115Z,18.47
2022-08-22T01:23:13.039Z,18.43
2022-08-22T01:24:12.963Z,18.38
2022-08-22T01:25:12.913Z,18.44
2022-08-22T01:26:12.816Z,18.41
2022-08-22T01:27:12.739Z,18.44
2022-08-22T01:28:12.661Z,18.38
2022-08-22T01:29:12.588Z,18.38
2022-08-22T01:30:12.509Z,18.34
2022-08-22T01:31:12.440Z,18.41
2022-08-22T01:32:12.362Z,18.29
2022-08-22T01:33:12.278Z,18.41
2022-08-22T01:34:13.006Z,18.41
2022-08-22T01:35:12.130Z,18.40
2022-08-22T01:36:12.057Z,18.35
2022-08-22T01:37:11.981Z,18.35
2022-08-22T01:38:11.907Z,18.41
2022-08-22T01:39:11.833Z,18.38
2022-08-22T01:40:11.811Z,18.37
2022-08-22T01:41:12.063Z,18.37
2022-08-22T01:42:11.601Z,18.34
2022-08-22T01:43:11.533Z,18.37
2022-08-22T01:44:11.452Z,18.43
2022-08-22T01:45:11.371Z,18.38
2022-08-22T01:46:11.296Z,18.35
2022-08-22T01:47:11.224Z,18.37
2022-08-22T01:48:11.142Z,18.38
2022-08-22T01:49:11.073Z,18.31
2022-08-22T01:50:10.993Z,18.40
2022-08-22T01:51:10.919Z,18.33
2022-08-22T01:52:10.847Z,18.44
2022-08-22T01:53:10.766Z,18.41
2022-08-22T01:54:10.695Z,18.35
2022-08-22T01:55:10.616Z,18.33
2022-08-22T01:56:10.537Z,18.34
2022-08-22T01:57:10.465Z,18.26
2022-08-22T01:58:10.390Z,18.11
2022-08-22T01:59:11.122Z,18.03
2022-08-22T02:00:10.244Z,18.04
2022-08-22T02:01:10.203Z,18.04
2022-08-22T02:02:10.092Z,18.08
2022-08-22T02:03:10.020Z,18.05
2022-08-22T02:04:09.936Z,17.98
2022-08-22T02:05:09.859Z,17.92
2022-08-22T02:06:09.782Z,18.00
2022-08-22T02:07:09.711Z,17.92
2022-08-22T02:08:09.632Z,17.87
2022-08-22T02:09:09.556Z,17.85
2022-08-22T02:10:09.487Z,17.80
2022-08-22T02:11:09.405Z,17.79
2022-08-22T02:12:13.885Z,17.85
2022-08-22T02:13:09.251Z,17.83
2022-08-22T02:14:09.178Z,17.83
2022-08-22T02:15:09.101Z,17.76
2022-08-22T02:16:09.025Z,17.79
2022-08-22T02:17:08.950Z,17.78
2022-08-22T02:18:08.872Z,17.80
2022-08-22T02:19:08.796Z,17.82
2022-08-22T02:20:08.722Z,17.82
2022-08-22T02:21:08.642Z,17.86
2022-08-22T02:22:08.568Z,17.85
2022-08-22T02:23:08.489Z,17.83
2022-08-22T02:24:08.412Z,17.85
2022-08-22T02:25:09.112Z,17.85
2022-08-22T02:26:08.262Z,17.86
2022-08-22T02:27:08.185Z,17.78
2022-08-22T02:28:08.110Z,17.85
2022-08-22T02:29:08.035Z,17.83
2022-08-22T02:30:07.953Z,17.83
2022-08-22T02:31:07.880Z,17.78
2022-08-22T02:32:07.807Z,17.82
2022-08-22T02:33:07.734Z,17.79
2022-08-22T02:34:07.655Z,17.80
2022-08-22T02:35:07.574Z,17.83
2022-08-22T02:36:07.503Z,17.78
2022-08-22T02:37:07.422Z,17.78
2022-08-22T02:38:07.345Z,17.70
2022-08-22T02:39:07.275Z,17.82
2022-08-22T02:40:07.248Z,17.72
2022-08-22T02:41:07.123Z,17.76
2022-08-22T02:42:07.042Z,17.82
2022-08-22T02:43:06.972Z,17.68
2022-08-22T02:44:06.891Z,17.68
2022-08-22T02:45:06.813Z,17.79
2022-08-22T02:46:07.134Z,17.70
2022-08-22T02:47:06.662Z,17.64
2022-08-22T02:48:06.583Z,17.65
2022-08-22T02:49:06.515Z,17.68
2022-08-22T02:50:06.437Z,17.60
2022-08-22T02:51:06.360Z,17.51
2022-08-22T02:52:06.284Z,17.51
2022-08-22T02:53:06.200Z,17.56
2022-08-22T02:54:06.137Z,17.51
2022-08-22T02:55:06.056Z,17.64
2022-08-22T02:56:05.973Z,17.57
2022-08-22T02:57:05.898Z,17.51
2022-08-22T02:58:05.822Z,17.49
2022-08-22T02:59:05.751Z,17.44
2022-08-22T03:00:05.672Z,17.41
2022-08-22T03:01:05.638Z,17.41
2022-08-22T03:02:05.522Z,17.38
2022-08-22T03:03:05.441Z,17.44
2022-08-22T03:04:05.410Z,17.42
2022-08-22T03:05:05.289Z,17.39
2022-08-22T03:06:05.219Z,17.39
2022-08-22T03:07:05.138Z,17.39
2022-08-22T03:08:05.060Z,17.44
2022-08-22T03:09:04.983Z,17.38
2022-08-22T03:10:04.911Z,17.34
2022-08-22T03:11:04.829Z,17.38
2022-08-22T03:12:04.751Z,17.29
2022-08-22T03:13:04.679Z,17.26
2022-08-22T03:14:04.600Z,17.20
2022-08-22T03:15:04.522Z,17.15
2022-08-22T03:16:04.454Z,16.96
2022-08-22T03:17:04.374Z,16.94
2022-08-22T03:18:04.299Z,16.94
2022-08-22T03:19:04.218Z,16.96
2022-08-22T03:20:04.146Z,16.96
2022-08-22T03:21:04.063Z,16.91
2022-08-22T03:22:04.005Z,16.81
2022-08-22T03:23:03.918Z,16.83
2022-08-22T03:24:03.842Z,16.86
2022-08-22T03:25:03.762Z,16.78
2022-08-22T03:26:07.668Z,16.79
2022-08-22T03:27:03.612Z,16.74
2022-08-22T03:28:03.558Z,16.72
2022-08-22T03:29:03.456Z,16.72
2022-08-22T03:30:03.375Z,16.64
2022-08-22T03:31:03.299Z,16.60
2022-08-22T03:32:03.227Z,16.58
2022-08-22T03:33:03.156Z,16.56
2022-08-22T03:34:03.074Z,16.58
2022-08-22T03:35:02.992Z,16.54
2022-08-22T03:36:02.918Z,16.49
2022-08-22T03:37:02.841Z,16.51
2022-08-22T03:38:02.769Z,16.36
2022-08-22T03:39:02.686Z,16.39
2022-08-22T03:40:02.652Z,16.39
2022-08-22T03:41:02.530Z,16.32
2022-08-22T03:42:02.465Z,16.31
2022-08-22T03:43:02.387Z,16.31
2022-08-22T03:44:02.308Z,16.28
2022-08-22T03:45:02.231Z,16.31
2022-08-22T03:46:02.147Z,16.24
2022-08-22T03:47:02.072Z,16.29
2022-08-22T03:48:01.999Z,16.31
2022-08-22T03:49:01.922Z,16.23
2022-08-22T03:50:01.845Z,16.26
2022-08-22T03:51:01.768Z,16.29
2022-08-22T03:52:01.691Z,16.23
2022-08-22T03:53:01.616Z,16.24
2022-08-22T03:54:01.541Z,16.31
2022-08-22T03:55:01.464Z,16.24
2022-08-22T03:56:01.382Z,16.26
2022-08-22T03:57:08.391Z,16.24
2022-08-22T03:59:09.997Z,16.33
2022-08-22T04:00:04.967Z,16.36
2022-08-22T04:01:04.924Z,16.33
2022-08-22T04:02:42.134Z,16.32
2022-08-22T04:03:04.728Z,16.41
2022-08-22T04:04:04.653Z,16.31
2022-08-22T04:05:04.623Z,16.24
2022-08-22T04:06:04.493Z,16.32
2022-08-22T04:07:05.429Z,16.31
2022-08-22T04:08:04.346Z,16.26
2022-08-22T04:09:04.296Z,16.23
2022-08-22T04:10:04.187Z,16.26
2022-08-22T04:11:04.113Z,16.28
2022-08-22T04:12:04.032Z,16.28
2022-08-22T04:13:03.987Z,16.21
2022-08-22T04:14:03.884Z,16.21
2022-08-22T04:15:03.808Z,16.23
2022-08-22T04:16:03.732Z,16.24
2022-08-22T04:17:03.662Z,16.20
2022-08-22T04:18:03.574Z,16.17
2022-08-22T04:19:03.501Z,16.17
2022-08-22T04:20:03.431Z,16.16
2022-08-22T04:21:03.341Z,16.20
2022-08-22T04:22:03.262Z,16.20
2022-08-22T04:23:03.194Z,16.16
2022-08-22T04:24:03.112Z,16.28
2022-08-22T04:25:07.271Z,16.23
2022-08-22T04:26:08.554Z,16.23
2022-08-22T04:27:02.891Z,16.24
2022-08-22T04:28:02.809Z,16.28
2022-08-22T04:29:02.730Z,16.12
2022-08-22T04:30:02.663Z,16.21
2022-08-22T04:31:02.576Z,16.13
2022-08-22T04:32:02.496Z,16.12
2022-08-22T04:33:02.424Z,16.17
2022-08-22T04:34:02.344Z,16.08
2022-08-22T04:35:02.262Z,16.09
2022-08-22T04:36:02.191Z,16.16
2022-08-22T04:37:02.114Z,16.04
2022-08-22T04:38:02.037Z,16.05
2022-08-22T04:39:01.955Z,16.13
2022-08-22T04:40:02.001Z,16.10
2022-08-22T04:41:04.536Z,16.08
2022-08-22T04:42:16.310Z,16.12
2022-08-22T04:43:01.648Z,16.12
2022-08-22T04:44:01.572Z,16.10
2022-08-22T04:45:01.496Z,16.10
2022-08-22T04:46:01.420Z,16.12
2022-08-22T04:47:01.345Z,16.17
2022-08-22T04:48:01.374Z,16.17
2022-08-22T04:49:01.183Z,16.13
2022-08-22T04:50:01.107Z,16.13
2022-08-22T04:51:01.033Z,16.10
2022-08-22T04:52:00.956Z,16.08
2022-08-22T04:53:00.881Z,16.04
2022-08-22T04:54:00.805Z,16.01
2022-08-22T04:55:00.721Z,16.00
2022-08-22T04:56:04.122Z,16.01
2022-08-22T04:57:00.567Z,15.97
2022-08-22T04:58:00.668Z,15.97
2022-08-22T04:59:00.412Z,16.01
2022-08-22T05:00:00.338Z,16.01
2022-08-22T05:01:00.262Z,15.97
2022-08-22T05:02:00.249Z,16.00
2022-08-22T05:03:00.107Z,16.01
2022-08-22T05:04:00.035Z,16.00
2022-08-22T05:04:59.953Z,16.00
2022-08-22T05:05:59.876Z,16.04
2022-08-22T05:06:59.796Z,16.04
2022-08-22T05:07:59.917Z,16.10
2022-08-22T05:08:59.644Z,16.10
2022-08-22T05:09:59.567Z,16.16
2022-08-22T05:10:59.492Z,16.10
2022-08-22T05:11:59.418Z,16.08
2022-08-22T05:12:59.336Z,16.08
2022-08-22T05:13:59.260Z,16.05
2022-08-22T05:14:59.180Z,16.02
2022-08-22T05:15:59.106Z,15.98
2022-08-22T05:16:59.023Z,15.94
2022-08-22T05:17:59.167Z,16.01
2022-08-22T05:18:58.873Z,15.98
2022-08-22T05:19:58.792Z,15.95
2022-08-22T05:20:58.722Z,16.04
2022-08-22T05:21:58.645Z,16.09
2022-08-22T05:22:58.563Z,16.02
2022-08-22T05:23:58.489Z,16.13
2022-08-22T05:24:58.409Z,16.08
2022-08-22T05:25:58.329Z,16.12
2022-08-22T05:26:58.252Z,16.15
2022-08-22T05:27:58.322Z,16.15
2022-08-22T05:28:58.097Z,16.12
2022-08-22T05:29:58.030Z,16.12
2022-08-22T05:30:57.947Z,16.17
2022-08-22T05:31:57.867Z,16.21
2022-08-22T05:32:57.795Z,16.26
2022-08-22T05:33:57.716Z,16.23
2022-08-22T05:34:57.640Z,16.26
2022-08-22T05:35:58.144Z,16.31
2022-08-22T05:36:57.482Z,16.38
2022-08-22T05:37:57.569Z,16.38
2022-08-22T05:38:57.328Z,16.36
2022-08-22T05:39:57.318Z,16.50
2022-08-22T05:40:57.174Z,16.56
2022-08-22T05:41:57.096Z,16.47
2022-08-22T05:42:57.025Z,16.57
2022-08-22T05:43:56.943Z,16.53
2022-08-22T05:44:56.871Z,16.60
2022-08-22T05:45:56.790Z,16.61
2022-08-22T05:46:56.716Z,16.61
2022-08-22T05:47:56.636Z,16.61
2022-08-22T05:48:56.562Z,16.69
2022-08-22T05:49:56.484Z,16.74
2022-08-22T05:50:56.405Z,16.74
2022-08-22T05:51:56.330Z,16.78
2022-08-22T05:52:56.251Z,16.81
2022-08-22T05:53:56.171Z,16.81
2022-08-22T05:54:56.096Z,16.81
2022-08-22T05:55:56.029Z,16.81
2022-08-22T05:56:55.944Z,16.87
2022-08-22T05:57:55.872Z,16.90
2022-08-22T05:58:55.792Z,16.87
2022-08-22T05:59:55.711Z,16.96
2022-08-22T06:00:55.634Z,17.01
2022-08-22T06:01:55.580Z,17.01
2022-08-22T06:02:55.482Z,16.97
2022-08-22T06:03:55.404Z,17.04
2022-08-22T06:04:55.332Z,17.09
2022-08-22T06:05:55.252Z,17.05
2022-08-22T06:06:55.176Z,17.06
2022-08-22T06:07:55.144Z,17.09
2022-08-22T06:08:55.026Z,17.09
2022-08-22T06:09:54.942Z,17.19
2022-08-22T06:10:54.868Z,17.16
2022-08-22T06:11:54.788Z,17.19
2022-08-22T06:12:54.712Z,17.29
2022-08-22T06:13:54.640Z,17.27
2022-08-22T06:14:54.559Z,17.36
2022-08-22T06:15:54.487Z,17.36
2022-08-22T06:16:54.410Z,17.39
2022-08-22T06:17:54.330Z,17.41
2022-08-22T06:18:54.254Z,17.45
2022-08-22T06:19:54.179Z,17.34
2022-08-22T06:20:54.097Z,17.42
2022-08-22T06:21:54.021Z,17.56
2022-08-22T06:22:53.947Z,17.48
2022-08-22T06:23:53.868Z,17.52
2022-08-22T06:24:53.796Z,17.64
2022-08-22T06:25:53.727Z,17.67
2022-08-22T06:26:53.644Z,17.65
2022-08-22T06:27:53.625Z,17.65
2022-08-22T06:28:54.789Z,17.76
2022-08-22T06:29:53.408Z,17.72
2022-08-22T06:30:53.332Z,17.83
2022-08-22T06:31:53.264Z,17.71
2022-08-22T06:32:59.148Z,17.72
2022-08-22T06:33:53.109Z,17.78
2022-08-22T06:34:53.028Z,17.85
2022-08-22T06:35:52.955Z,17.80
2022-08-22T06:36:52.876Z,17.80
2022-08-22T06:37:52.815Z,17.80
2022-08-22T06:38:52.728Z,17.87
2022-08-22T06:39:53.753Z,17.86
2022-08-22T06:40:52.568Z,17.87
2022-08-22T06:41:52.494Z,17.87
2022-08-22T06:42:52.428Z,18.00
2022-08-22T06:43:52.345Z,17.92
2022-08-22T06:44:52.267Z,17.95
2022-08-22T06:45:52.190Z,18.04
2022-08-22T06:46:52.112Z,18.03
2022-08-22T06:47:53.526Z,18.05
2022-08-22T06:48:51.955Z,18.05
2022-08-22T06:49:51.888Z,18.05
2022-08-22T06:50:51.808Z,18.00
2022-08-22T06:51:51.729Z,17.94
2022-08-22T06:52:51.653Z,17.89
2022-08-22T06:53:51.573Z,17.97
2022-08-22T06:54:51.503Z,17.97
2022-08-22T06:55:51.421Z,18.07
2022-08-22T06:56:51.350Z,18.07
2022-08-22T06:57:51.272Z,18.07
2022-08-22T06:58:51.192Z,18.03
2022-08-22T06:59:51.120Z,18.08
2022-08-22T07:01:04.012Z,18.00
2022-08-22T07:01:51.032Z,17.98
2022-08-22T07:02:50.887Z,18.07
2022-08-22T07:03:50.837Z,18.08
2022-08-22T07:04:50.736Z,18.07
2022-08-22T07:05:50.672Z,18.08
2022-08-22T07:06:50.581Z,18.25
2022-08-22T07:07:50.508Z,18.16
2022-08-22T07:08:50.429Z,18.25
2022-08-22T07:09:50.355Z,18.29
2022-08-22T07:10:50.314Z,18.35
2022-08-22T07:11:50.199Z,18.25
2022-08-22T07:12:50.128Z,18.37
2022-08-22T07:13:50.048Z,18.29
2022-08-22T07:14:49.971Z,18.25
2022-08-22T07:15:49.912Z,18.35
2022-08-22T07:16:49.868Z,18.41
2022-08-22T07:17:49.743Z,18.34
2022-08-22T07:18:49.668Z,18.33
2022-08-22T07:19:49.595Z,18.37
2022-08-22T07:20:49.514Z,18.49
2022-08-22T07:21:49.434Z,18.44
2022-08-22T07:22:49.371Z,18.45
2022-08-22T07:23:49.286Z,18.52
2022-08-22T07:24:49.209Z,18.58
2022-08-22T07:25:49.133Z,18.58
2022-08-22T07:26:49.057Z,18.62
2022-08-22T07:27:49.075Z,18.68
2022-08-22T07:28:51.555Z,18.65
2022-08-22T07:29:48.833Z,18.62
2022-08-22T07:30:48.750Z,18.66
2022-08-22T07:31:49.067Z,18.83
2022-08-22T07:32:48.598Z,18.83
2022-08-22T07:33:48.520Z,18.84
2022-08-22T07:34:48.447Z,18.89
2022-08-22T07:35:53.599Z,18.90
2022-08-22T07:36:48.294Z,18.99
2022-08-22T07:37:48.216Z,19.00
2022-08-22T07:38:48.148Z,19.12
2022-08-22T07:39:48.096Z,19.11
2022-08-22T07:40:47.991Z,19.19
2022-08-22T07:41:47.916Z,19.16
2022-08-22T07:42:47.843Z,19.34
2022-08-22T07:43:47.766Z,19.26
2022-08-22T07:44:47.687Z,19.31
2022-08-22T07:45:47.609Z,19.31
2022-08-22T07:46:47.535Z,19.45
2022-08-22T07:47:49.800Z,19.45
2022-08-22T07:49:07.676Z,19.51
2022-08-22T07:49:49.852Z,19.58
2022-08-22T07:50:47.235Z,19.52
2022-08-22T07:51:47.166Z,19.54
2022-08-22T07:52:47.080Z,19.66
2022-08-22T07:53:47.004Z,19.69
2022-08-22T07:54:46.928Z,19.82
2022-08-22T07:55:49.877Z,19.84
2022-08-22T07:56:46.777Z,19.88
2022-08-22T07:57:46.719Z,19.92
2022-08-22T07:58:46.630Z,19.91
2022-08-22T07:59:46.556Z,19.96
2022-08-22T08:00:46.479Z,20.07
2022-08-22T08:01:46.425Z,20.07
2022-08-22T08:02:46.327Z,20.13
2022-08-22T08:03:46.250Z,20.11
2022-08-22T08:04:46.176Z,20.18
2022-08-22T08:05:46.102Z,20.22
2022-08-22T08:06:46.024Z,20.24
2022-08-22T08:07:45.948Z,20.22
2022-08-22T08:08:45.870Z,20.29
2022-08-22T08:09:45.799Z,20.40
2022-08-22T08:10:45.728Z,20.48
2022-08-22T08:11:45.652Z,20.48
2022-08-22T08:12:45.576Z,20.51
2022-08-22T08:13:45.500Z,20.56
2022-08-22T08:14:45.420Z,20.59
2022-08-22T08:15:45.344Z,20.67
2022-08-22T08:16:45.270Z,20.66
2022-08-22T08:17:45.197Z,20.63
2022-08-22T08:18:45.123Z,20.70
2022-08-22T08:19:45.045Z,20.63
2022-08-22T08:20:44.971Z,20.70
2022-08-22T08:21:44.892Z,20.78
2022-08-22T08:22:44.821Z,20.72
2022-08-22T08:23:44.749Z,20.80
2022-08-22T08:24:45.123Z,20.77
2022-08-22T08:25:44.594Z,20.77
2022-08-22T08:26:44.519Z,20.88
2022-08-22T08:27:44.447Z,20.88
2022-08-22T08:28:44.369Z,20.87
2022-08-22T08:29:44.300Z,20.84
2022-08-22T08:30:44.220Z,20.84
2022-08-22T08:31:45.114Z,20.82
2022-08-22T08:32:44.072Z,20.96
2022-08-22T08:33:44.003Z,20.97
2022-08-22T08:34:43.920Z,20.92
2022-08-22T08:36:02.503Z,20.96
2022-08-22T08:36:43.770Z,20.96
2022-08-22T08:37:43.694Z,20.97
2022-08-22T08:38:43.620Z,20.99
2022-08-22T08:39:43.587Z,20.96
2022-08-22T08:40:43.470Z,20.93
2022-08-22T08:41:43.393Z,21.06
2022-08-22T08:42:43.316Z,21.02
2022-08-22T08:43:43.254Z,21.09
2022-08-22T08:44:43.172Z,21.03
2022-08-22T08:45:43.100Z,21.07
2022-08-22T08:46:43.023Z,21.09
2022-08-22T08:47:42.944Z,21.11
2022-08-22T08:48:42.871Z,21.18
2022-08-22T08:49:43.010Z,21.11
2022-08-22T08:50:43.307Z,21.22
2022-08-22T08:51:42.647Z,21.20
2022-08-22T08:52:42.574Z,21.25
2022-08-22T08:53:43.396Z,21.27
2022-08-22T08:54:42.428Z,21.40
2022-08-22T08:55:42.345Z,21.29
2022-08-22T08:56:42.772Z,21.30
2022-08-22T08:57:42.238Z,21.35
2022-08-22T08:58:42.146Z,21.37
2022-08-22T08:59:44.076Z,21.42
2022-08-22T09:00:41.974Z,21.39
2022-08-22T09:01:41.989Z,21.45
2022-08-22T09:02:42.470Z,21.40
2022-08-22T09:03:41.854Z,21.46
2022-08-22T09:04:41.678Z,21.37
2022-08-22T09:05:41.599Z,21.42
2022-08-22T09:06:42.606Z,21.50
2022-08-22T09:07:41.455Z,21.40
2022-08-22T09:08:41.376Z,21.50
2022-08-22T09:09:41.300Z,21.51
2022-08-22T09:10:41.226Z,21.48
2022-08-22T09:11:41.154Z,21.58
2022-08-22T09:12:41.700Z,21.55
2022-08-22T09:13:41.090Z,21.61
2022-08-22T09:14:40.928Z,21.66
2022-08-22T09:15:40.853Z,21.70
2022-08-22T09:17:40.702Z,21.76
2022-08-22T09:18:40.628Z,21.73
2022-08-22T09:19:40.553Z,21.75
2022-08-22T09:20:40.480Z,21.76
2022-08-22T09:21:40.404Z,21.76
2022-08-22T09:22:50.704Z,21.82
2022-08-22T09:23:40.308Z,21.82
2022-08-22T09:24:40.180Z,21.76
2022-08-22T09:25:40.465Z,21.83
2022-08-22T09:26:40.029Z,21.88
2022-08-22T09:27:39.962Z,21.89
2022-08-22T09:28:39.884Z,21.98
2022-08-22T09:30:39.736Z,22.07
2022-08-22T09:31:47.962Z,22.04
2022-08-22T09:32:39.584Z,22.23
2022-08-22T09:33:39.586Z,22.30
2022-08-22T09:34:39.436Z,22.36
2022-08-22T09:35:39.364Z,22.47
2022-08-22T09:36:39.285Z,22.57
2022-08-22T09:37:39.212Z,22.65
2022-08-22T09:38:39.135Z,22.69
2022-08-22T09:39:39.124Z,22.84
2022-08-22T09:40:15.633Z,21.95
2022-08-22T09:40:38.999Z,22.98
2022-08-22T09:41:38.916Z,22.96
2022-08-22T09:42:38.862Z,23.03
2022-08-22T09:43:39.590Z,23.03
2022-08-22T09:44:39.677Z,23.10
2022-08-22T09:45:38.623Z,23.05
2022-08-22T09:46:38.560Z,23.08
2022-08-22T09:47:39.173Z,23.15
2022-08-22T09:48:38.400Z,23.20
2022-08-22T09:49:38.343Z,23.18
2022-08-22T09:50:38.257Z,23.18
2022-08-22T09:51:38.177Z,23.23
2022-08-22T09:52:38.101Z,23.23
2022-08-22T09:53:38.094Z,23.23
2022-08-22T09:54:37.952Z,23.24
2022-08-22T09:55:37.882Z,23.34
2022-08-22T09:56:37.804Z,23.37
2022-08-22T09:57:45.005Z,23.43
2022-08-22T09:59:42.561Z,23.46
2022-08-22T10:00:41.548Z,23.41
2022-08-22T10:02:45.356Z,23.47
2022-08-22T10:03:45.281Z,23.54
2022-08-22T10:05:49.142Z,23.44
2022-08-22T10:06:49.049Z,23.47
2022-08-22T10:08:41.839Z,23.47
2022-08-22T10:09:41.764Z,23.54
2022-08-22T10:11:45.641Z,23.47
2022-08-22T10:12:45.548Z,23.51
2022-08-22T10:14:50.487Z,23.43
2022-08-22T10:15:49.316Z,23.48
2022-08-22T10:16:49.237Z,23.50
2022-08-22T10:17:49.168Z,23.51
2022-08-22T10:18:53.867Z,23.56
2022-08-22T10:19:49.022Z,23.59
2022-08-22T10:20:48.944Z,23.65
2022-08-22T10:21:48.876Z,23.66
2022-08-22T10:22:48.804Z,23.69
2022-08-22T10:23:55.958Z,23.78
2022-08-22T10:25:52.569Z,23.86
2022-08-22T10:26:52.483Z,23.87
2022-08-22T10:27:52.416Z,23.92
2022-08-22T10:28:52.339Z,24.03
2022-08-22T10:29:52.268Z,24.14
2022-08-22T10:30:52.192Z,24.20
2022-08-22T10:31:58.735Z,24.30
2022-08-22T10:32:52.046Z,24.35
2022-08-22T10:33:51.972Z,24.39
2022-08-22T10:34:51.900Z,24.35
2022-08-22T10:35:51.827Z,24.39
2022-08-22T10:36:51.751Z,24.36
2022-08-22T10:37:51.687Z,24.29
2022-08-22T10:38:51.612Z,24.32
2022-08-22T10:39:51.561Z,24.20
2022-08-22T10:40:51.491Z,24.20
2022-08-22T10:41:51.390Z,24.20
2022-08-22T10:42:51.319Z,24.18
2022-08-22T10:44:00.757Z,24.26
2022-08-22T10:44:51.168Z,24.05
2022-08-22T10:45:51.100Z,24.05
2022-08-22T10:46:51.030Z,24.06
2022-08-22T10:47:50.953Z,24.02
2022-08-22T10:48:50.880Z,24.01
2022-08-22T10:49:51.253Z,24.06
2022-08-22T10:50:50.735Z,24.17
2022-08-22T10:51:50.660Z,24.20
2022-08-22T10:52:50.591Z,24.26
2022-08-22T10:53:50.516Z,24.40
2022-08-22T10:54:50.445Z,24.40
2022-08-22T10:55:50.371Z,24.40
2022-08-22T10:56:50.303Z,24.33
2022-08-22T10:57:52.794Z,24.32
2022-08-22T10:58:50.156Z,24.33
2022-08-22T10:59:50.082Z,24.36
2022-08-22T11:00:50.417Z,24.38
2022-08-22T11:01:49.956Z,24.38
2022-08-22T11:02:49.858Z,24.39
2022-08-22T11:03:49.789Z,24.51
2022-08-22T11:04:49.718Z,24.45
2022-08-22T11:05:50.836Z,24.53
2022-08-22T11:06:49.589Z,24.60
2022-08-22T11:07:50.236Z,24.60
2022-08-22T11:08:49.432Z,24.69
2022-08-22T11:09:49.355Z,24.74
2022-08-22T11:10:49.280Z,24.74
2022-08-22T11:11:49.643Z,24.88
2022-08-22T11:12:49.143Z,24.98
2022-08-22T11:13:49.723Z,25.07
2022-08-22T11:14:48.991Z,25.07
2022-08-22T11:15:48.924Z,25.07
2022-08-22T11:16:48.855Z,25.11
2022-08-22T11:17:53.855Z,25.22
2022-08-22T11:19:02.062Z,25.26
2022-08-22T11:19:48.636Z,25.22
2022-08-22T11:20:48.556Z,25.26
2022-08-22T11:21:48.492Z,25.32
2022-08-22T11:22:48.415Z,25.36
2022-08-22T11:23:48.343Z,25.41
2022-08-22T11:24:56.503Z,25.32
2022-08-22T11:25:53.688Z,25.35
2022-08-22T11:26:48.125Z,25.38
2022-08-22T11:27:48.050Z,25.38
2022-08-22T11:28:47.982Z,25.38
2022-08-22T11:29:47.918Z,25.50
2022-08-22T11:30:47.841Z,25.58
2022-08-22T11:31:51.730Z,25.66
2022-08-22T11:32:47.692Z,25.66
2022-08-22T11:33:47.827Z,25.77
2022-08-22T11:34:47.557Z,25.81
2022-08-22T11:35:47.486Z,25.83
2022-08-22T11:36:47.407Z,25.96
2022-08-22T11:37:47.334Z,25.98
2022-08-22T11:38:47.269Z,26.10
2022-08-22T11:39:47.312Z,26.18
2022-08-22T11:40:47.122Z,26.31
2022-08-22T11:41:52.278Z,26.47
2022-08-22T11:42:47.790Z,26.44
2022-08-22T11:43:46.909Z,26.55
2022-08-22T11:44:50.742Z,26.58
2022-08-22T11:45:46.764Z,26.66
2022-08-22T11:46:46.691Z,26.81
2022-08-22T11:47:46.624Z,26.90
2022-08-22T11:48:48.587Z,26.93
2022-08-22T11:49:46.483Z,26.85
2022-08-22T11:50:46.407Z,26.85
2022-08-22T11:51:46.347Z,26.80
2022-08-22T11:52:51.828Z,26.63
2022-08-22T11:53:46.196Z,26.63
2022-08-22T11:54:46.126Z,26.53
2022-08-22T11:55:46.054Z,26.62
2022-08-22T11:56:45.978Z,26.70
2022-08-22T11:57:45.910Z,26.75
2022-08-22T11:58:45.849Z,26.74
2022-08-22T11:59:45.772Z,26.75
2022-08-22T12:00:45.694Z,26.73
2022-08-22T12:01:45.710Z,26.75
2022-08-22T12:02:47.425Z,26.70
2022-08-22T12:03:45.485Z,26.74
2022-08-22T12:04:45.416Z,26.84
2022-08-22T12:05:45.348Z,26.83
2022-08-22T12:06:45.271Z,26.84
2022-08-22T12:07:50.503Z,26.95
2022-08-22T12:08:45.136Z,26.89
2022-08-22T12:09:45.063Z,27.02
2022-08-22T12:10:44.989Z,27.05
2022-08-22T12:11:44.914Z,27.21
2022-08-22T12:12:44.847Z,27.33
2022-08-22T12:13:44.776Z,27.52
2022-08-22T12:14:44.710Z,27.64
2022-08-22T12:15:44.633Z,27.68
2022-08-22T12:16:45.062Z,27.82
2022-08-22T12:17:55.808Z,27.92
2022-08-22T12:18:45.040Z,28.12
2022-08-22T12:20:12.552Z,28.25
2022-08-22T12:20:45.339Z,28.44
2022-08-22T12:21:44.214Z,28.62
2022-08-22T12:22:44.329Z,28.78
2022-08-22T12:23:49.316Z,28.89
2022-08-22T12:24:44.000Z,29.14
2022-08-22T12:25:44.571Z,29.41
2022-08-22T12:26:43.860Z,29.69
2022-08-22T12:27:48.178Z,29.91
2022-08-22T12:28:43.722Z,30.19
2022-08-22T12:29:44.850Z,30.51
2022-08-22T12:30:43.585Z,30.61
2022-08-22T12:31:43.513Z,30.80
2022-08-22T12:32:43.963Z,30.91
2022-08-22T12:33:43.374Z,31.03
2022-08-22T12:34:43.309Z,31.17
2022-08-22T12:35:43.237Z,31.18
2022-08-22T12:36:43.166Z,31.44
2022-08-22T12:37:52.817Z,31.58
2022-08-22T12:38:43.031Z,31.85
2022-08-22T12:39:43.024Z,31.85
2022-08-22T12:40:43.663Z,32.21
2022-08-22T12:41:46.730Z,32.27
2022-08-22T12:42:42.752Z,32.51
2022-08-22T12:43:42.838Z,32.71
2022-08-22T12:44:42.617Z,33.04
2022-08-22T12:45:42.555Z,33.30
2022-08-22T12:46:47.252Z,33.81
2022-08-22T12:47:42.457Z,34.16
2022-08-22T12:48:42.343Z,34.61
2022-08-22T12:49:42.280Z,35.05
2022-08-22T12:50:42.208Z,35.53
2022-08-22T12:51:42.144Z,35.92
2022-08-22T12:52:42.080Z,36.18
2022-08-22T12:53:42.013Z,36.09
2022-08-22T12:54:41.944Z,36.08
2022-08-22T12:55:41.892Z,36.07
2022-08-22T12:56:41.814Z,35.95